Huvudsida
METAR-TAF:

METAR-TAF

Flygplatser :

Kuching, Malaysia

latitud: 01-29N, longitud: 110-20E, höjd: 27 m

Aktuellt väderrapport

Denna rapport gjordes för 17 minuter sedan, klockan 21:00 UTC
Stilla vind
Temperatur 24°C
Fuktighet 100%
Tryck 1011 hPa
Sikt 10 km eller mer
Få moln på en höjd av 2000 ft

METAR: WBGG 222100Z 00000KT 9999 FEW020 24/24 Q1011 NOSIG

Tid: 05:17 (21:17 UTC)

Väderprognos

Denna rapport gjordes för 4 timmar och 17 minuter sedan, klockan 17:00 UTC
Prognos gäller från 22 kl. 18 UTC till 23 kl. 18 UTC
Vind 5 kt från ost/sydost
Sikt 10 km eller mer
Få moln på en höjd av 2000 ft
Temporärt
från 23 kl. 02 UTC till 23 kl. 06 UTC
Vind 6 kt från nord
Sikt: 4000 m
Få moln på en höjd av 1500 ft, Cumulonimbus.
Spridda moln på en höjd av 2000 ft
åska, regn,

TAF: WBGG 221700Z 2218/2318 12005KT 9999 FEW020 TEMPO 2302/2306 35006KT 4000 TSRA FEW015CB SCT020

Aktuella väderrapporter och prognoser från 4000 flygplatser (METAR- och TAF-rapporter).

De tillgängliga stationerna syns som gula och röda prickar på kartan.

För musen över prickarna för att se namnen på stationerna.

Klicka sedan för att få väderrapporter och prognoser.

För att ändra kartan: Klicka på de gröna knapparna med ett svart kors på för att zooma in; den gröna knappen med ett streck på för att zooma ut; eller på de gröna pilarna för angränsande kartor.


METAR-TAF: